Hjaltland — VSTY8 — position and weather

sailwx.info

Track history (hours):
 
Tides and Currents Weather Stations Pressure Air Temp Water Temp Dewpoint Dewpoint Depression Visibility Wind Speed Wind Dir Waves Ship Positions

Hjaltland

Operator: NorthLink Orkey & Shetland Ferries Ltd

Last reported at 2019-Aug-23 20:57 UTC. Time now 2019-Aug-24 08:04 UTC.
Position N 57°41' W 001°37'.

Type: Ship. MMSI: 235450000.

Date/timePositionNaut miles runAvg speedWind from/ knotsBaromVisibWave heightAir tempDewpointWater temp
2019-Aug-23 20:57N 57°41' W 001°37'613.1
2019-Aug-23 20:30N 57°35' W 001°38'713.1
2019-Aug-23 20:00N 57°28' W 001°38'713.2
2019-Aug-23 19:30N 57°23' W 001°44'713.2
2019-Aug-23 19:00N 57°17' W 001°51'713.2
2019-Aug-23 18:30N 57°12' W 001°58'5 9.8
2019-Aug-23 18:00N 57°09' W 002°05'0 0.4
2019-Aug-23 17:30N 57°09' W 002°05'0 0.0
2019-Aug-23 17:00N 57°09' W 002°05'0 0.0
2019-Aug-23 16:27N 57°09' W 002°05'0 0.0
2019-Aug-23 16:00N 57°09' W 002°05'0 0.0
2019-Aug-23 15:30N 57°09' W 002°05'0 0.0
2019-Aug-23 15:00N 57°09' W 002°05'0 0.0
2019-Aug-23 14:30N 57°09' W 002°05'0 0.0
2019-Aug-23 14:00N 57°09' W 002°05'0 0.0
2019-Aug-23 13:30N 57°09' W 002°05'0 0.0
2019-Aug-23 13:00N 57°09' W 002°05'0 0.0
2019-Aug-23 12:30N 57°09' W 002°05'0 0.0
2019-Aug-23 12:00N 57°09' W 002°05'0 0.0
2019-Aug-23 11:30N 57°09' W 002°05'0 0.0
2019-Aug-23 11:01N 57°09' W 002°05'0 0.0
2019-Aug-23 10:30N 57°09' W 002°05'0 0.0
2019-Aug-23 10:00N 57°09' W 002°05'0 0.0
2019-Aug-23 09:30N 57°09' W 002°05'0 0.0
2019-Aug-23 09:00N 57°09' W 002°05'0 0.0
2019-Aug-23 08:31N 57°09' W 002°05'0 0.0
2019-Aug-23 08:00N 57°09' W 002°05'0 0.0
2019-Aug-23 07:30N 57°09' W 002°05'0 0.0
2019-Aug-23 07:00N 57°09' W 002°05'0 0.0
2019-Aug-23 06:31N 57°09' W 002°05'0 0.0
2019-Aug-23 06:00N 57°09' W 002°05'1 1.3
2019-Aug-23 05:30N 57°08' W 002°04'612.6
2019-Aug-23 05:00N 57°13' W 001°56'713.1
2019-Aug-23 04:27N 57°19' W 001°48'713.5
2019-Aug-23 03:57N 57°24' W 001°41'613.0
2019-Aug-23 03:28N 57°30' W 001°37'612.7
2019-Aug-23 03:00N 57°36' W 001°37'4 0.1
2019-Aug-21 20:43N 57°40' W 001°35'313.9
2019-Aug-21 20:29N 57°37' W 001°35'613.2
2019-Aug-21 20:00N 57°31' W 001°37'713.3
2019-Aug-21 19:30N 57°24' W 001°42'713.5
2019-Aug-21 18:58N 57°18' W 001°49'613.3
2019-Aug-21 18:30N 57°13' W 001°56'612.6
2019-Aug-21 18:00N 57°09' W 002°04'1 1.7
2019-Aug-21 17:27N 57°09' W 002°05'0 0.0
2019-Aug-21 16:57N 57°09' W 002°05'0 0.0
2019-Aug-21 16:27N 57°09' W 002°05'0 0.0
2019-Aug-21 15:57N 57°09' W 002°05'0 0.0
2019-Aug-21 15:27N 57°09' W 002°05'0 0.0
2019-Aug-21 14:57N 57°09' W 002°05'0 0.0
2019-Aug-21 14:27N 57°09' W 002°05'0 0.0
2019-Aug-21 13:57N 57°09' W 002°05'0 0.0
2019-Aug-21 13:27N 57°09' W 002°05'0 0.0
2019-Aug-21 12:57N 57°09' W 002°05'0 0.0
2019-Aug-21 12:27N 57°09' W 002°05'0 0.0
2019-Aug-21 11:57N 57°09' W 002°05'0 0.0
2019-Aug-21 11:27N 57°09' W 002°05'0 0.0
2019-Aug-21 10:57N 57°09' W 002°05'0 0.0
2019-Aug-21 10:27N 57°09' W 002°05'0 0.0
2019-Aug-21 09:57N 57°09' W 002°05'0 0.0
2019-Aug-21 09:28N 57°09' W 002°05'0 0.0
2019-Aug-21 08:58N 57°09' W 002°05'0 0.0
2019-Aug-21 08:28N 57°09' W 002°05'0 0.0
2019-Aug-21 07:58N 57°09' W 002°05'0 0.0
2019-Aug-21 07:28N 57°09' W 002°05'0 0.0
2019-Aug-21 06:58N 57°09' W 002°05'0 0.0
2019-Aug-21 06:28N 57°09' W 002°05'0 0.0
2019-Aug-21 05:58N 57°09' W 002°05'0 1.0
2019-Aug-21 05:30N 57°09' W 002°05'4 7.8
2019-Aug-21 05:00N 57°11' W 001°59'611.6
2019-Aug-21 04:31N 57°16' W 001°53'812.2
2019-Aug-21 03:53N 57°22' W 001°44'512.2
2019-Aug-21 03:30N 57°26' W 001°40'612.8
2019-Aug-21 03:00N 57°32' W 001°37'8 0.3
2019-Aug-19 20:05N 57°40' W 001°37'218.9
2019-Aug-19 20:00N 57°38' W 001°37'918.7
2019-Aug-19 19:30N 57°29' W 001°39'1018.6
2019-Aug-19 18:59N 57°20' W 001°46'917.9
2019-Aug-19 18:30N 57°13' W 001°55'713.7
2019-Aug-19 18:00N 57°08' W 002°04'1 1.3
2019-Aug-19 17:30N 57°09' W 002°05'0 0.0
2019-Aug-19 17:00N 57°09' W 002°05'0 0.0
2019-Aug-19 16:30N 57°09' W 002°05'0 0.0
2019-Aug-19 16:00N 57°09' W 002°05'0 0.0
2019-Aug-19 15:30N 57°09' W 002°05'0 0.0
2019-Aug-19 15:00N 57°09' W 002°05'0 0.0
2019-Aug-19 14:31N 57°09' W 002°05'0 0.0
2019-Aug-19 14:00N 57°09' W 002°05'0 0.0
2019-Aug-19 13:30N 57°09' W 002°05'0 0.0
2019-Aug-19 13:00N 57°09' W 002°05'0 0.0
2019-Aug-19 12:30N 57°09' W 002°05'0 0.0
2019-Aug-19 12:00N 57°09' W 002°05'0 0.0
2019-Aug-19 11:30N 57°09' W 002°05'0 0.0
2019-Aug-19 11:00N 57°09' W 002°05'0 0.0
2019-Aug-19 10:30N 57°09' W 002°05'0 0.0
2019-Aug-19 10:00N 57°09' W 002°05'0 0.0
2019-Aug-19 09:30N 57°09' W 002°05'0 0.0
2019-Aug-19 09:00N 57°09' W 002°05'0 0.0
2019-Aug-19 08:30N 57°09' W 002°05'0 0.0
2019-Aug-19 08:00N 57°09' W 002°05'0 0.0
2019-Aug-19 07:30N 57°09' W 002°05'0 0.0
2019-Aug-19 07:00N 57°09' W 002°05'0 0.0
2019-Aug-19 06:30N 57°09' W 002°05'0 0.0
2019-Aug-19 06:00N 57°09' W 002°05'1 1.3
2019-Aug-19 05:31N 57°08' W 002°04'611.9
2019-Aug-19 05:00N 57°13' W 001°57'714.7
2019-Aug-19 04:31N 57°19' W 001°49'918.1
2019-Aug-19 04:01N 57°26' W 001°40'918.4
2019-Aug-19 03:31N 57°36' W 001°38'92 3.4
2019-Aug-18 00:05N 59°04' W 002°27'114.5
2019-Aug-18 00:01N 59°03' W 002°28'714.2
2019-Aug-17 23:30N 59°00' W 002°41'816.6
2019-Aug-17 23:00N 59°01' W 002°57'2 1.7
2019-Aug-17 22:06N 58°60' W 002°58'0 0.0
2019-Aug-17 21:58N 58°60' W 002°58'3 5.4
2019-Aug-17 21:30N 59°01' W 002°54'1019.5
2019-Aug-17 21:00N 58°56' W 002°37'1223.0
2019-Aug-17 20:30N 58°46' W 002°29'1223.3
2019-Aug-17 20:00N 58°35' W 002°21'6023.9
2019-Aug-17 17:31N 57°39' W 001°43'1223.4
2019-Aug-17 17:00N 57°27' W 001°41'1223.3
2019-Aug-17 16:30N 57°17' W 001°52'1020.6
2019-Aug-17 16:00N 57°09' W 002°04'1 1.7
2019-Aug-17 15:30N 57°09' W 002°05'0 0.0
2019-Aug-17 15:00N 57°09' W 002°05'0 0.0
2019-Aug-17 14:30N 57°09' W 002°05'0 0.0
2019-Aug-17 14:00N 57°09' W 002°05'0 0.0
2019-Aug-17 13:28N 57°09' W 002°05'0 0.0
2019-Aug-17 12:57N 57°09' W 002°05'0 0.0
2019-Aug-17 12:30N 57°09' W 002°05'0 0.0
2019-Aug-17 11:57N 57°09' W 002°05'0 0.0
2019-Aug-17 11:30N 57°09' W 002°05'0 0.0
2019-Aug-17 11:01N 57°09' W 002°05'0 0.0
2019-Aug-17 10:30N 57°09' W 002°05'0 0.0
2019-Aug-17 10:00N 57°09' W 002°05'0 0.0
2019-Aug-17 09:30N 57°09' W 002°05'0 0.0
2019-Aug-17 08:57N 57°09' W 002°05'0 0.0
2019-Aug-17 08:27N 57°09' W 002°05'0 0.0
2019-Aug-17 08:01N 57°09' W 002°05'0 0.0
2019-Aug-17 07:30N 57°09' W 002°05'0 0.0
2019-Aug-17 07:01N 57°09' W 002°05'0 0.0
2019-Aug-17 06:30N 57°09' W 002°05'0 0.0
2019-Aug-17 06:00N 57°09' W 002°05'1 1.3
2019-Aug-17 05:30N 57°08' W 002°04'611.3
2019-Aug-17 05:01N 57°13' W 001°57'1214.5
2019-Aug-17 04:09N 57°23' W 001°45'314.7
2019-Aug-17 03:59N 57°25' W 001°42'714.6
2019-Aug-17 03:31N 57°32' W 001°39'8822.2
2019-Aug-16 23:33N 58°54' W 002°36'424.3
2019-Aug-16 23:24N 58°58' W 002°38'922.2
2019-Aug-16 23:00N 59°01' W 002°54'2 2.1
2019-Aug-16 21:53N 58°60' W 002°58'4 9.3
2019-Aug-16 21:30N 59°01' W 002°52'3918.2
2019-Aug-16 19:21N 59°26' W 001°53'27 1.4
2019-Aug-16 00:24N 59°05' W 002°25'614.6
2019-Aug-16 00:00N 59°00' W 002°34'815.6
2019-Aug-15 23:30N 59°01' W 002°49'5 9.7
2019-Aug-15 22:59N 58°60' W 002°58'0 0.0
2019-Aug-15 21:51N 58°60' W 002°58'3 9.5
2019-Aug-15 21:31N 59°01' W 002°52'1019.5
2019-Aug-15 21:00N 58°56' W 002°36'3223.0
2019-Aug-15 19:38N 58°26' W 002°14'4723.8
2019-Aug-15 17:39N 57°42' W 001°44'324.5
2019-Aug-15 17:30N 57°38' W 001°42'1122.9
2019-Aug-15 17:00N 57°27' W 001°40'1223.8
2019-Aug-15 16:31N 57°17' W 001°51'1121.5
2019-Aug-15 16:00N 57°09' W 002°04'1 1.6
2019-Aug-15 15:29N 57°09' W 002°05'0 0.0
2019-Aug-15 14:59N 57°09' W 002°05'0 0.0
2019-Aug-15 14:29N 57°09' W 002°05'0 0.0
2019-Aug-15 13:59N 57°09' W 002°05'0 0.0
2019-Aug-15 13:29N 57°09' W 002°05'0 0.0
2019-Aug-15 12:59N 57°09' W 002°05'0 0.0
2019-Aug-15 12:29N 57°09' W 002°05'0 0.0
2019-Aug-15 11:59N 57°09' W 002°05'0 0.0
2019-Aug-15 11:29N 57°09' W 002°05'0 0.0
2019-Aug-15 10:59N 57°09' W 002°05'0 0.0
2019-Aug-15 10:29N 57°09' W 002°05'0 0.0
2019-Aug-15 09:59N 57°09' W 002°05'0 0.0
2019-Aug-15 09:29N 57°09' W 002°05'0 0.0
2019-Aug-15 08:59N 57°09' W 002°05'0 0.0
2019-Aug-15 08:29N 57°09' W 002°05'0 0.0
2019-Aug-15 07:59N 57°09' W 002°05'0 0.0
2019-Aug-15 07:29N 57°09' W 002°05'0 0.0
2019-Aug-15 06:59N 57°09' W 002°05'0 0.0
2019-Aug-15 06:26N 57°09' W 002°05'0 0.0
2019-Aug-15 05:59N 57°09' W 002°05'1 1.2
2019-Aug-15 05:31N 57°08' W 002°04'612.8
2019-Aug-15 05:00N 57°13' W 001°56'1216.4
2019-Aug-15 04:17N 57°23' W 001°44'516.7
2019-Aug-15 04:00N 57°27' W 001°39'918.9
2019-Aug-15 03:31N 57°36' W 001°40'7723.2
2019-Aug-15 00:13N 58°48' W 002°31'523.5
2019-Aug-14 23:59N 58°53' W 002°35'1020.0
2019-Aug-14 23:30N 59°00' W 002°47'612.0
2019-Aug-14 23:00N 58°60' W 002°58'0 0.1
2019-Aug-14 21:44N 58°60' W 002°58'2 8.3
2019-Aug-14 21:30N 59°01' W 002°56'612.8
2019-Aug-14 21:01N 59°00' W 002°44'4 8.8
2019-Aug-14 20:30N 58°60' W 002°35'7 0.3
2019-Aug-14 00:48N 59°05' W 002°27'412.7
2019-Aug-14 00:30N 59°02' W 002°31'611.8
2019-Aug-14 00:00N 59°00' W 002°43'713.4
2019-Aug-13 23:30N 59°01' W 002°56'2 1.4
2019-Aug-13 22:05N 58°60' W 002°58'0 0.1
2019-Aug-13 22:00N 58°60' W 002°58'510.7
2019-Aug-13 21:30N 59°00' W 002°48'1019.5
2019-Aug-13 21:00N 58°54' W 002°35'  
Track history (hours):
 
Tides and Currents Weather Stations Pressure Air Temp Water Temp Dewpoint Dewpoint Depression Visibility Wind Speed Wind Dir Waves Ship Positions

Hjaltland

Operator: NorthLink Orkey & Shetland Ferries Ltd

Last reported at 2019-Aug-23 20:57 UTC. Time now 2019-Aug-24 08:04 UTC.
Position N 57°41' W 001°37'.

Type: Ship. MMSI: 235450000.

Date/timePositionNaut miles runAvg speedWind from/ knotsBaromVisibWave heightAir tempDewpointWater temp
2019-Aug-23 20:57N 57°41' W 001°37'613.1
2019-Aug-23 20:30N 57°35' W 001°38'713.1
2019-Aug-23 20:00N 57°28' W 001°38'713.2
2019-Aug-23 19:30N 57°23' W 001°44'713.2
2019-Aug-23 19:00N 57°17' W 001°51'713.2
2019-Aug-23 18:30N 57°12' W 001°58'5 9.8
2019-Aug-23 18:00N 57°09' W 002°05'0 0.4
2019-Aug-23 17:30N 57°09' W 002°05'0 0.0
2019-Aug-23 17:00N 57°09' W 002°05'0 0.0
2019-Aug-23 16:27N 57°09' W 002°05'0 0.0
2019-Aug-23 16:00N 57°09' W 002°05'0 0.0
2019-Aug-23 15:30N 57°09' W 002°05'0 0.0
2019-Aug-23 15:00N 57°09' W 002°05'0 0.0
2019-Aug-23 14:30N 57°09' W 002°05'0 0.0
2019-Aug-23 14:00N 57°09' W 002°05'0 0.0
2019-Aug-23 13:30N 57°09' W 002°05'0 0.0
2019-Aug-23 13:00N 57°09' W 002°05'0 0.0
2019-Aug-23 12:30N 57°09' W 002°05'0 0.0
2019-Aug-23 12:00N 57°09' W 002°05'0 0.0
2019-Aug-23 11:30N 57°09' W 002°05'0 0.0
2019-Aug-23 11:01N 57°09' W 002°05'0 0.0
2019-Aug-23 10:30N 57°09' W 002°05'0 0.0
2019-Aug-23 10:00N 57°09' W 002°05'0 0.0
2019-Aug-23 09:30N 57°09' W 002°05'0 0.0
2019-Aug-23 09:00N 57°09' W 002°05'0 0.0
2019-Aug-23 08:31N 57°09' W 002°05'0 0.0
2019-Aug-23 08:00N 57°09' W 002°05'0 0.0
2019-Aug-23 07:30N 57°09' W 002°05'0 0.0
2019-Aug-23 07:00N 57°09' W 002°05'0 0.0
2019-Aug-23 06:31N 57°09' W 002°05'0 0.0
2019-Aug-23 06:00N 57°09' W 002°05'1 1.3
2019-Aug-23 05:30N 57°08' W 002°04'612.6
2019-Aug-23 05:00N 57°13' W 001°56'713.1
2019-Aug-23 04:27N 57°19' W 001°48'713.5
2019-Aug-23 03:57N 57°24' W 001°41'613.0
2019-Aug-23 03:28N 57°30' W 001°37'612.7
2019-Aug-23 03:00N 57°36' W 001°37'4 0.1
2019-Aug-21 20:43N 57°40' W 001°35'313.9
2019-Aug-21 20:29N 57°37' W 001°35'613.2
2019-Aug-21 20:00N 57°31' W 001°37'713.3
2019-Aug-21 19:30N 57°24' W 001°42'713.5
2019-Aug-21 18:58N 57°18' W 001°49'613.3
2019-Aug-21 18:30N 57°13' W 001°56'612.6
2019-Aug-21 18:00N 57°09' W 002°04'1 1.7
2019-Aug-21 17:27N 57°09' W 002°05'0 0.0
2019-Aug-21 16:57N 57°09' W 002°05'0 0.0
2019-Aug-21 16:27N 57°09' W 002°05'0 0.0
2019-Aug-21 15:57N 57°09' W 002°05'0 0.0
2019-Aug-21 15:27N 57°09' W 002°05'0 0.0
2019-Aug-21 14:57N 57°09' W 002°05'0 0.0
2019-Aug-21 14:27N 57°09' W 002°05'0 0.0
2019-Aug-21 13:57N 57°09' W 002°05'0 0.0
2019-Aug-21 13:27N 57°09' W 002°05'0 0.0
2019-Aug-21 12:57N 57°09' W 002°05'0 0.0
2019-Aug-21 12:27N 57°09' W 002°05'0 0.0
2019-Aug-21 11:57N 57°09' W 002°05'0 0.0
2019-Aug-21 11:27N 57°09' W 002°05'0 0.0
2019-Aug-21 10:57N 57°09' W 002°05'0 0.0
2019-Aug-21 10:27N 57°09' W 002°05'0 0.0
2019-Aug-21 09:57N 57°09' W 002°05'0 0.0
2019-Aug-21 09:28N 57°09' W 002°05'0 0.0
2019-Aug-21 08:58N 57°09' W 002°05'0 0.0
2019-Aug-21 08:28N 57°09' W 002°05'0 0.0
2019-Aug-21 07:58N 57°09' W 002°05'0 0.0
2019-Aug-21 07:28N 57°09' W 002°05'0 0.0
2019-Aug-21 06:58N 57°09' W 002°05'0 0.0
2019-Aug-21 06:28N 57°09' W 002°05'0 0.0
2019-Aug-21 05:58N 57°09' W 002°05'0 1.0
2019-Aug-21 05:30N 57°09' W 002°05'4 7.8
2019-Aug-21 05:00N 57°11' W 001°59'611.6
2019-Aug-21 04:31N 57°16' W 001°53'812.2
2019-Aug-21 03:53N 57°22' W 001°44'512.2
2019-Aug-21 03:30N 57°26' W 001°40'612.8
2019-Aug-21 03:00N 57°32' W 001°37'8 0.3
2019-Aug-19 20:05N 57°40' W 001°37'218.9
2019-Aug-19 20:00N 57°38' W 001°37'918.7
2019-Aug-19 19:30N 57°29' W 001°39'1018.6
2019-Aug-19 18:59N 57°20' W 001°46'917.9
2019-Aug-19 18:30N 57°13' W 001°55'713.7
2019-Aug-19 18:00N 57°08' W 002°04'1 1.3
2019-Aug-19 17:30N 57°09' W 002°05'0 0.0
2019-Aug-19 17:00N 57°09' W 002°05'0 0.0
2019-Aug-19 16:30N 57°09' W 002°05'0 0.0
2019-Aug-19 16:00N 57°09' W 002°05'0 0.0
2019-Aug-19 15:30N 57°09' W 002°05'0 0.0
2019-Aug-19 15:00N 57°09' W 002°05'0 0.0
2019-Aug-19 14:31N 57°09' W 002°05'0 0.0
2019-Aug-19 14:00N 57°09' W 002°05'0 0.0
2019-Aug-19 13:30N 57°09' W 002°05'0 0.0
2019-Aug-19 13:00N 57°09' W 002°05'0 0.0
2019-Aug-19 12:30N 57°09' W 002°05'0 0.0
2019-Aug-19 12:00N 57°09' W 002°05'0 0.0
2019-Aug-19 11:30N 57°09' W 002°05'0 0.0
2019-Aug-19 11:00N 57°09' W 002°05'0 0.0
2019-Aug-19 10:30N 57°09' W 002°05'0 0.0
2019-Aug-19 10:00N 57°09' W 002°05'0 0.0
2019-Aug-19 09:30N 57°09' W 002°05'0 0.0
2019-Aug-19 09:00N 57°09' W 002°05'0 0.0
2019-Aug-19 08:30N 57°09' W 002°05'0 0.0
2019-Aug-19 08:00N 57°09' W 002°05'0 0.0
2019-Aug-19 07:30N 57°09' W 002°05'0 0.0
2019-Aug-19 07:00N 57°09' W 002°05'0 0.0
2019-Aug-19 06:30N 57°09' W 002°05'0 0.0
2019-Aug-19 06:00N 57°09' W 002°05'1 1.3
2019-Aug-19 05:31N 57°08' W 002°04'611.9
2019-Aug-19 05:00N 57°13' W 001°57'714.7
2019-Aug-19 04:31N 57°19' W 001°49'918.1
2019-Aug-19 04:01N 57°26' W 001°40'918.4
2019-Aug-19 03:31N 57°36' W 001°38'92 3.4
2019-Aug-18 00:05N 59°04' W 002°27'114.5
2019-Aug-18 00:01N 59°03' W 002°28'714.2
2019-Aug-17 23:30N 59°00' W 002°41'816.6
2019-Aug-17 23:00N 59°01' W 002°57'2 1.7
2019-Aug-17 22:06N 58°60' W 002°58'0 0.0
2019-Aug-17 21:58N 58°60' W 002°58'3 5.4
2019-Aug-17 21:30N 59°01' W 002°54'1019.5
2019-Aug-17 21:00N 58°56' W 002°37'1223.0
2019-Aug-17 20:30N 58°46' W 002°29'1223.3
2019-Aug-17 20:00N 58°35' W 002°21'6023.9
2019-Aug-17 17:31N 57°39' W 001°43'1223.4
2019-Aug-17 17:00N 57°27' W 001°41'1223.3
2019-Aug-17 16:30N 57°17' W 001°52'1020.6
2019-Aug-17 16:00N 57°09' W 002°04'1 1.7
2019-Aug-17 15:30N 57°09' W 002°05'0 0.0
2019-Aug-17 15:00N 57°09' W 002°05'0 0.0
2019-Aug-17 14:30N 57°09' W 002°05'0 0.0
2019-Aug-17 14:00N 57°09' W 002°05'0 0.0
2019-Aug-17 13:28N 57°09' W 002°05'0 0.0
2019-Aug-17 12:57N 57°09' W 002°05'0 0.0
2019-Aug-17 12:30N 57°09' W 002°05'0 0.0
2019-Aug-17 11:57N 57°09' W 002°05'0 0.0
2019-Aug-17 11:30N 57°09' W 002°05'0 0.0
2019-Aug-17 11:01N 57°09' W 002°05'0 0.0
2019-Aug-17 10:30N 57°09' W 002°05'0 0.0
2019-Aug-17 10:00N 57°09' W 002°05'0 0.0
2019-Aug-17 09:30N 57°09' W 002°05'0 0.0
2019-Aug-17 08:57N 57°09' W 002°05'0 0.0
2019-Aug-17 08:27N 57°09' W 002°05'0 0.0
2019-Aug-17 08:01N 57°09' W 002°05'0 0.0
2019-Aug-17 07:30N 57°09' W 002°05'0 0.0
2019-Aug-17 07:01N 57°09' W 002°05'0 0.0
2019-Aug-17 06:30N 57°09' W 002°05'0 0.0
2019-Aug-17 06:00N 57°09' W 002°05'1 1.3
2019-Aug-17 05:30N 57°08' W 002°04'611.3
2019-Aug-17 05:01N 57°13' W 001°57'1214.5
2019-Aug-17 04:09N 57°23' W 001°45'314.7
2019-Aug-17 03:59N 57°25' W 001°42'714.6
2019-Aug-17 03:31N 57°32' W 001°39'8822.2
2019-Aug-16 23:33N 58°54' W 002°36'424.3
2019-Aug-16 23:24N 58°58' W 002°38'922.2
2019-Aug-16 23:00N 59°01' W 002°54'2 2.1
2019-Aug-16 21:53N 58°60' W 002°58'4 9.3
2019-Aug-16 21:30N 59°01' W 002°52'3918.2
2019-Aug-16 19:21N 59°26' W 001°53'27 1.4
2019-Aug-16 00:24N 59°05' W 002°25'614.6
2019-Aug-16 00:00N 59°00' W 002°34'815.6
2019-Aug-15 23:30N 59°01' W 002°49'5 9.7
2019-Aug-15 22:59N 58°60' W 002°58'0 0.0
2019-Aug-15 21:51N 58°60' W 002°58'3 9.5
2019-Aug-15 21:31N 59°01' W 002°52'1019.5
2019-Aug-15 21:00N 58°56' W 002°36'3223.0
2019-Aug-15 19:38N 58°26' W 002°14'4723.8
2019-Aug-15 17:39N 57°42' W 001°44'324.5
2019-Aug-15 17:30N 57°38' W 001°42'1122.9
2019-Aug-15 17:00N 57°27' W 001°40'1223.8
2019-Aug-15 16:31N 57°17' W 001°51'1121.5
2019-Aug-15 16:00N 57°09' W 002°04'1 1.6
2019-Aug-15 15:29N 57°09' W 002°05'0 0.0
2019-Aug-15 14:59N 57°09' W 002°05'0 0.0
2019-Aug-15 14:29N 57°09' W 002°05'0 0.0
2019-Aug-15 13:59N 57°09' W 002°05'0 0.0
2019-Aug-15 13:29N 57°09' W 002°05'0 0.0
2019-Aug-15 12:59N 57°09' W 002°05'0 0.0
2019-Aug-15 12:29N 57°09' W 002°05'0 0.0
2019-Aug-15 11:59N 57°09' W 002°05'0 0.0
2019-Aug-15 11:29N 57°09' W 002°05'0 0.0
2019-Aug-15 10:59N 57°09' W 002°05'0 0.0
2019-Aug-15 10:29N 57°09' W 002°05'0 0.0
2019-Aug-15 09:59N 57°09' W 002°05'0 0.0
2019-Aug-15 09:29N 57°09' W 002°05'0 0.0
2019-Aug-15 08:59N 57°09' W 002°05'0 0.0
2019-Aug-15 08:29N 57°09' W 002°05'0 0.0
2019-Aug-15 07:59N 57°09' W 002°05'0 0.0
2019-Aug-15 07:29N 57°09' W 002°05'0 0.0
2019-Aug-15 06:59N 57°09' W 002°05'0 0.0
2019-Aug-15 06:26N 57°09' W 002°05'0 0.0
2019-Aug-15 05:59N 57°09' W 002°05'1 1.2
2019-Aug-15 05:31N 57°08' W 002°04'612.8
2019-Aug-15 05:00N 57°13' W 001°56'1216.4
2019-Aug-15 04:17N 57°23' W 001°44'516.7
2019-Aug-15 04:00N 57°27' W 001°39'918.9
2019-Aug-15 03:31N 57°36' W 001°40'7723.2
2019-Aug-15 00:13N 58°48' W 002°31'523.5
2019-Aug-14 23:59N 58°53' W 002°35'1020.0
2019-Aug-14 23:30N 59°00' W 002°47'612.0
2019-Aug-14 23:00N 58°60' W 002°58'0 0.1
2019-Aug-14 21:44N 58°60' W 002°58'2 8.3
2019-Aug-14 21:30N 59°01' W 002°56'612.8
2019-Aug-14 21:01N 59°00' W 002°44'4 8.8
2019-Aug-14 20:30N 58°60' W 002°35'7 0.3
2019-Aug-14 00:48N 59°05' W 002°27'412.7
2019-Aug-14 00:30N 59°02' W 002°31'611.8
2019-Aug-14 00:00N 59°00' W 002°43'713.4
2019-Aug-13 23:30N 59°01' W 002°56'2 1.4
2019-Aug-13 22:05N 58°60' W 002°58'0 0.1
2019-Aug-13 22:00N 58°60' W 002°58'510.7
2019-Aug-13 21:30N 59°00' W 002°48'1019.5
2019-Aug-13 21:00N 58°54' W 002°35'  

Dump ship's entire track history